createdAt,value
2018-03-06T00:01:46.604Z,29.60
2018-03-06T00:04:14.900Z,28.80
2018-03-06T00:06:42.478Z,29.17
2018-03-06T00:09:09.995Z,30.17
2018-03-06T00:11:37.513Z,29.30
2018-03-06T00:14:05.807Z,29.50
2018-03-06T00:16:33.341Z,30.20
2018-03-06T00:19:00.938Z,29.40
2018-03-06T00:21:29.252Z,29.77
2018-03-06T00:23:56.797Z,27.13
2018-03-06T00:26:25.104Z,30.00
2018-03-06T00:28:52.603Z,30.53
2018-03-06T00:31:20.110Z,28.97
2018-03-06T00:33:47.611Z,29.57
2018-03-06T00:36:15.117Z,27.27
2018-03-06T00:38:42.668Z,29.20
2018-03-06T00:41:10.224Z,30.27
2018-03-06T00:43:37.780Z,29.57
2018-03-06T00:46:06.058Z,28.53
2018-03-06T00:48:34.365Z,28.70
2018-03-06T00:51:01.859Z,27.23
2018-03-06T00:53:29.377Z,31.07
2018-03-06T00:55:57.659Z,29.47
2018-03-06T00:58:25.178Z,28.63
2018-03-06T01:00:52.754Z,30.83
2018-03-06T01:03:20.291Z,28.50
2018-03-06T01:05:48.563Z,27.63
2018-03-06T01:08:16.180Z,29.27
2018-03-06T01:10:43.699Z,30.67
2018-03-06T01:13:11.231Z,32.10
2018-03-06T01:15:38.757Z,29.70
2018-03-06T01:18:07.059Z,29.87
2018-03-06T01:20:34.656Z,30.97
2018-03-06T01:23:02.161Z,30.73
2018-03-06T01:25:29.835Z,31.10
2018-03-06T01:27:57.350Z,28.60
2018-03-06T01:30:24.850Z,31.00
2018-03-06T01:32:52.405Z,33.60
2018-03-06T01:35:19.911Z,27.65
2018-03-06T01:37:47.862Z,32.70
2018-03-06T01:40:15.460Z,30.77
2018-03-06T01:42:42.967Z,31.70
2018-03-06T01:45:11.278Z,32.33
2018-03-06T01:47:38.780Z,30.63
2018-03-06T01:50:06.310Z,28.80
2018-03-06T01:52:34.621Z,30.93
2018-03-06T01:55:02.211Z,30.70
2018-03-06T01:57:30.566Z,29.20
2018-03-06T01:59:58.112Z,33.63
2018-03-06T02:02:25.609Z,32.70
2018-03-06T02:04:53.290Z,33.15
2018-03-06T02:07:21.453Z,31.80
2018-03-06T02:09:49.745Z,33.20
2018-03-06T02:12:18.015Z,34.43
2018-03-06T02:14:45.532Z,30.90
2018-03-06T02:17:13.117Z,34.80
2018-03-06T02:19:40.635Z,33.77
2018-03-06T02:22:08.904Z,32.93
2018-03-06T02:24:37.186Z,32.10
2018-03-06T02:27:04.690Z,31.73
2018-03-06T02:29:32.992Z,33.57
2018-03-06T02:32:00.570Z,35.00
2018-03-06T02:34:28.078Z,33.50
2018-03-06T02:36:55.610Z,32.40
2018-03-06T02:39:23.164Z,32.43
2018-03-06T02:41:51.434Z,32.27
2018-03-06T02:44:19.128Z,33.87
2018-03-06T02:46:47.385Z,33.00
2018-03-06T02:49:14.906Z,31.97
2018-03-06T02:51:42.443Z,33.10
2018-03-06T02:54:09.975Z,34.30
2018-03-06T02:56:37.479Z,33.93
2018-03-06T02:59:05.022Z,33.37
2018-03-06T03:01:32.535Z,33.13
2018-03-06T03:04:00.811Z,33.50
2018-03-06T03:06:29.091Z,34.23
2018-03-06T03:08:56.784Z,33.37
2018-03-06T03:11:25.107Z,32.17
2018-03-06T03:13:52.625Z,34.10
2018-03-06T03:16:20.259Z,30.47
2018-03-06T03:18:47.792Z,35.13
2018-03-06T03:21:16.195Z,34.00
2018-03-06T03:23:44.490Z,32.57
2018-03-06T03:26:12.018Z,35.90
2018-03-06T03:28:39.547Z,32.67
2018-03-06T03:31:07.185Z,34.10
2018-03-06T03:33:35.468Z,29.50
2018-03-06T03:36:03.748Z,34.30
2018-03-06T03:38:32.060Z,34.38
2018-03-06T03:40:59.619Z,33.20
2018-03-06T03:43:27.900Z,37.07
2018-03-06T03:45:56.167Z,36.75
2018-03-06T03:48:23.676Z,35.50
2018-03-06T03:50:51.436Z,35.97
2018-03-06T03:53:19.744Z,36.38
2018-03-06T03:55:47.242Z,35.83
2018-03-06T03:58:14.764Z,34.95
2018-03-06T04:00:42.350Z,34.70
2018-03-06T04:03:10.006Z,35.53
2018-03-06T04:05:37.507Z,33.43
2018-03-06T04:08:05.040Z,34.55
2018-03-06T04:10:33.324Z,33.25
2018-03-06T04:13:01.195Z,34.25
2018-03-06T04:15:28.706Z,35.95
2018-03-06T04:17:56.256Z,35.03
2018-03-06T04:20:24.570Z,32.80
2018-03-06T04:22:52.756Z,34.37
2018-03-06T04:25:20.356Z,34.58
2018-03-06T04:27:47.854Z,35.87
2018-03-06T04:30:15.380Z,36.00
2018-03-06T04:32:42.975Z,35.58
2018-03-06T04:35:10.514Z,35.17
2018-03-06T04:37:38.026Z,35.45
2018-03-06T04:40:05.557Z,36.00
2018-03-06T04:42:33.713Z,35.30
2018-03-06T04:45:01.245Z,37.07
2018-03-06T04:47:28.761Z,35.40
2018-03-06T04:49:56.267Z,37.30
2018-03-06T04:52:23.773Z,36.03
2018-03-06T04:54:51.360Z,37.25
2018-03-06T04:57:18.882Z,35.70
2018-03-06T04:59:46.398Z,35.57
2018-03-06T05:02:13.981Z,36.53
2018-03-06T05:04:42.460Z,35.20
2018-03-06T05:07:09.984Z,36.00
2018-03-06T05:09:37.498Z,33.10
2018-03-06T05:12:04.997Z,35.73
2018-03-06T05:14:33.298Z,37.00
2018-03-06T05:17:00.831Z,36.30
2018-03-06T05:19:28.502Z,35.10
2018-03-06T05:21:56.821Z,35.47
2018-03-06T05:24:25.091Z,36.80
2018-03-06T05:26:52.645Z,36.50
2018-03-06T05:29:20.194Z,37.20
2018-03-06T05:31:47.737Z,35.70
2018-03-06T05:34:15.296Z,32.15
2018-03-06T05:36:42.802Z,35.65
2018-03-06T05:39:10.325Z,35.27
2018-03-06T05:41:38.855Z,36.42
2018-03-06T05:44:06.392Z,37.58
2018-03-06T05:46:34.677Z,38.60
2018-03-06T05:49:02.980Z,36.05
2018-03-06T05:51:30.518Z,35.77
2018-03-06T05:53:58.818Z,37.05
2018-03-06T05:56:26.312Z,34.80
2018-03-06T05:58:53.834Z,36.45
2018-03-06T06:01:21.360Z,36.60
2018-03-06T06:03:49.160Z,37.30
2018-03-06T06:06:16.681Z,37.73
2018-03-06T06:08:44.976Z,35.70
2018-03-06T06:11:13.267Z,36.87
2018-03-06T06:13:41.557Z,37.05
2018-03-06T06:16:09.859Z,37.63
2018-03-06T06:18:38.135Z,36.33
2018-03-06T06:21:06.450Z,37.15
2018-03-06T06:23:34.376Z,35.63
2018-03-06T06:26:03.418Z,37.95
2018-03-06T06:28:31.704Z,35.00
2018-03-06T06:30:59.987Z,37.75
2018-03-06T06:33:27.525Z,36.63
2018-03-06T06:35:55.042Z,37.67
2018-03-06T06:38:23.340Z,37.53
2018-03-06T06:40:50.866Z,35.40
2018-03-06T06:43:18.364Z,36.90
2018-03-06T06:45:46.670Z,36.83
2018-03-06T06:48:14.187Z,38.78
2018-03-06T06:50:41.742Z,36.58
2018-03-06T06:53:09.239Z,34.33
2018-03-06T06:55:36.760Z,38.28
2018-03-06T06:58:04.281Z,38.60
2018-03-06T07:00:31.963Z,39.13
2018-03-06T07:02:59.489Z,38.75
2018-03-06T07:05:27.023Z,38.85
2018-03-06T07:07:55.463Z,38.63
2018-03-06T07:10:23.101Z,37.87
2018-03-06T07:12:50.688Z,37.70
2018-03-06T07:15:18.200Z,40.40
2018-03-06T07:17:45.828Z,38.77
2018-03-06T07:20:13.374Z,37.67
2018-03-06T07:22:41.621Z,35.67
2018-03-06T07:25:09.360Z,37.07
2018-03-06T07:27:36.871Z,35.80
2018-03-06T07:30:04.752Z,39.43
2018-03-06T07:32:34.115Z,34.93
2018-03-06T07:35:01.668Z,37.10
2018-03-06T07:37:29.933Z,38.60
2018-03-06T07:39:57.497Z,38.40
2018-03-06T07:42:25.020Z,36.97
2018-03-06T07:44:52.681Z,35.17
2018-03-06T07:47:21.008Z,38.33
2018-03-06T07:49:48.537Z,35.90
2018-03-06T07:52:16.962Z,36.93
2018-03-06T07:54:44.603Z,38.30
2018-03-06T07:57:13.278Z,38.80
2018-03-06T07:59:40.816Z,38.83
2018-03-06T08:02:08.315Z,35.90
2018-03-06T08:04:35.815Z,37.37
2018-03-06T08:07:04.122Z,37.20
2018-03-06T08:09:31.667Z,39.43
2018-03-06T08:11:59.168Z,39.40
2018-03-06T08:14:26.713Z,38.30
2018-03-06T08:16:54.969Z,42.07
2018-03-06T08:19:22.465Z,38.43
2018-03-06T08:21:50.715Z,40.07
2018-03-06T08:24:18.376Z,36.63
2018-03-06T08:26:45.879Z,39.27
2018-03-06T08:29:13.407Z,33.00
2018-03-06T08:31:41.276Z,36.03
2018-03-06T08:34:08.784Z,37.90
2018-03-06T08:36:36.352Z,38.03
2018-03-06T08:39:03.868Z,38.30
2018-03-06T08:41:32.173Z,39.47
2018-03-06T08:43:59.721Z,37.90
2018-03-06T08:46:27.981Z,38.53
2018-03-06T08:48:55.656Z,38.27
2018-03-06T08:51:23.129Z,39.00
2018-03-06T08:53:50.814Z,37.47
2018-03-06T08:56:18.315Z,37.37
2018-03-06T08:58:46.567Z,37.10
2018-03-06T09:01:14.126Z,37.33
2018-03-06T09:03:41.914Z,40.17
2018-03-06T09:06:09.374Z,38.93
2018-03-06T09:08:36.902Z,35.50
2018-03-06T09:11:04.395Z,39.60
2018-03-06T09:13:32.024Z,39.43
2018-03-06T09:16:00.271Z,41.67
2018-03-06T09:18:27.875Z,36.93
2018-03-06T09:20:56.496Z,38.20
2018-03-06T09:23:24.048Z,32.87
2018-03-06T09:25:52.353Z,35.93
2018-03-06T09:28:20.010Z,34.50
2018-03-06T09:30:48.278Z,36.67
2018-03-06T09:33:15.983Z,37.63
2018-03-06T09:35:43.488Z,36.10
2018-03-06T09:38:10.980Z,35.73
2018-03-06T09:40:38.816Z,38.73
2018-03-06T09:43:06.571Z,38.23
2018-03-06T09:45:35.185Z,38.30
2018-03-06T09:48:02.728Z,35.97
2018-03-06T09:50:31.025Z,37.37
2018-03-06T09:52:59.291Z,36.93
2018-03-06T09:55:26.802Z,36.27
2018-03-06T09:57:54.308Z,35.80
2018-03-06T10:00:22.391Z,36.47
2018-03-06T10:02:49.998Z,35.00
2018-03-06T10:05:18.286Z,34.87
2018-03-06T10:07:45.813Z,37.47
2018-03-06T10:10:13.301Z,33.80
2018-03-06T10:12:41.242Z,35.67
2018-03-06T10:15:08.743Z,34.40
2018-03-06T10:17:36.237Z,37.97
2018-03-06T10:20:03.789Z,39.00
2018-03-06T10:22:31.318Z,36.40
2018-03-06T10:24:58.862Z,35.53
2018-03-06T10:27:26.353Z,38.70
2018-03-06T10:29:53.925Z,37.77
2018-03-06T10:32:22.388Z,35.10
2018-03-06T10:34:54.344Z,36.93
2018-03-06T10:37:21.871Z,35.80
2018-03-06T10:39:49.372Z,34.77
2018-03-06T10:42:16.879Z,35.80
2018-03-06T10:44:44.420Z,35.17
2018-03-06T10:47:11.915Z,36.67
2018-03-06T10:49:40.248Z,35.20
2018-03-06T10:52:07.817Z,34.70
2018-03-06T10:54:35.364Z,33.10
2018-03-06T10:57:03.755Z,32.30
2018-03-06T10:59:31.294Z,33.50
2018-03-06T11:01:58.868Z,34.00
2018-03-06T11:04:26.365Z,34.07
2018-03-06T11:06:54.641Z,33.10
2018-03-06T11:09:22.129Z,33.23
2018-03-06T11:11:50.420Z,37.00
2018-03-06T11:14:18.739Z,38.20
2018-03-06T11:16:46.994Z,37.10
2018-03-06T11:19:15.271Z,38.60
2018-03-06T11:21:43.586Z,35.90
2018-03-06T11:24:11.092Z,35.60
2018-03-06T11:26:38.594Z,37.00
2018-03-06T11:29:06.086Z,36.73
2018-03-06T11:31:34.378Z,33.40
2018-03-06T11:34:02.636Z,34.40
2018-03-06T11:36:30.136Z,38.60
2018-03-06T11:38:58.416Z,37.07
2018-03-06T11:41:26.688Z,37.17
2018-03-06T11:43:54.488Z,35.97
2018-03-06T11:46:22.774Z,37.80
2018-03-06T11:48:50.277Z,37.30
2018-03-06T11:51:17.868Z,34.90
2018-03-06T11:53:45.559Z,38.23
2018-03-06T11:56:13.063Z,38.80
2018-03-06T11:58:41.326Z,38.23
2018-03-06T12:01:09.629Z,36.30
2018-03-06T12:03:37.885Z,37.73
2018-03-06T12:06:05.518Z,35.77
2018-03-06T12:08:33.049Z,37.47
2018-03-06T12:11:00.584Z,35.10
2018-03-06T12:13:28.101Z,38.70
2018-03-06T12:15:56.383Z,39.20
2018-03-06T12:18:24.643Z,38.73
2018-03-06T12:20:52.300Z,37.67
2018-03-06T12:23:19.821Z,36.30
2018-03-06T12:25:48.112Z,37.70
2018-03-06T12:28:16.386Z,36.60
2018-03-06T12:30:43.997Z,37.70
2018-03-06T12:33:11.653Z,38.20
2018-03-06T12:35:39.157Z,39.40
2018-03-06T12:38:06.639Z,40.07
2018-03-06T12:40:34.165Z,40.03
2018-03-06T12:43:01.647Z,35.80
2018-03-06T12:45:29.167Z,38.70
2018-03-06T12:47:56.659Z,38.40
2018-03-06T12:50:24.949Z,37.83
2018-03-06T12:52:53.262Z,36.83
2018-03-06T12:55:21.036Z,35.30
2018-03-06T12:57:48.712Z,35.80
2018-03-06T13:00:16.272Z,34.90
2018-03-06T13:02:44.558Z,35.30
2018-03-06T13:05:12.934Z,38.43
2018-03-06T13:07:40.468Z,38.23
2018-03-06T13:10:07.947Z,38.00
2018-03-06T13:12:35.456Z,38.40
2018-03-06T13:15:03.714Z,43.13
2018-03-06T13:17:31.331Z,41.67
2018-03-06T13:19:58.826Z,42.43
2018-03-06T13:22:26.383Z,38.00
2018-03-06T13:24:53.914Z,36.57
2018-03-06T13:27:21.435Z,38.13
2018-03-06T13:29:48.948Z,39.97
2018-03-06T13:32:16.935Z,41.47
2018-03-06T13:34:44.428Z,40.20
2018-03-06T13:37:12.689Z,41.60
2018-03-06T13:39:40.197Z,45.93
2018-03-06T13:42:07.929Z,45.43
2018-03-06T13:44:35.435Z,46.40
2018-03-06T13:47:03.702Z,47.03
2018-03-06T13:49:31.199Z,42.50
2018-03-06T13:51:58.706Z,43.10
2018-03-06T13:54:26.323Z,45.17
2018-03-06T13:56:54.590Z,44.60
2018-03-06T13:59:22.086Z,45.30
2018-03-06T14:01:50.384Z,48.03
2018-03-06T14:04:18.683Z,48.97
2018-03-06T14:06:46.195Z,46.27
2018-03-06T14:09:13.744Z,49.13
2018-03-06T14:11:41.239Z,46.70
2018-03-06T14:14:08.743Z,47.13
2018-03-06T14:16:36.319Z,46.97
2018-03-06T14:19:03.805Z,47.20
2018-03-06T14:21:31.370Z,44.63
2018-03-06T14:23:59.659Z,44.27
2018-03-06T14:26:27.964Z,48.80
2018-03-06T14:28:55.468Z,49.20
2018-03-06T14:31:23.004Z,53.87
2018-03-06T14:33:50.518Z,52.33
2018-03-06T14:36:18.024Z,57.63
2018-03-06T14:38:45.520Z,59.53
2018-03-06T14:41:13.186Z,58.83
2018-03-06T14:43:42.037Z,60.33
2018-03-06T14:46:09.741Z,58.40
2018-03-06T14:48:37.238Z,68.33
2018-03-06T14:51:04.768Z,66.03
2018-03-06T14:53:32.427Z,68.77
2018-03-06T14:55:59.969Z,69.60
2018-03-06T14:58:27.474Z,74.47
2018-03-06T15:00:55.912Z,71.97
2018-03-06T15:03:23.512Z,80.13
2018-03-06T15:05:51.050Z,79.10
2018-03-06T15:08:19.300Z,78.47
2018-03-06T15:10:46.814Z,75.37
2018-03-06T15:13:14.305Z,72.03
2018-03-06T15:15:41.839Z,77.67
2018-03-06T15:18:10.162Z,73.73
2018-03-06T15:20:37.711Z,72.93
2018-03-06T15:23:05.314Z,71.73
2018-03-06T15:25:33.002Z,68.10
2018-03-06T15:28:00.502Z,68.03
2018-03-06T15:30:29.658Z,64.73
2018-03-06T15:32:57.342Z,60.73
2018-03-06T15:35:25.426Z,61.33
2018-03-06T15:37:52.940Z,62.40
2018-03-06T15:40:21.229Z,64.93
2018-03-06T15:42:48.719Z,62.13
2018-03-06T15:45:16.997Z,60.30
2018-03-06T15:47:45.317Z,63.27
2018-03-06T15:50:12.834Z,66.70
2018-03-06T15:52:41.231Z,67.00
2018-03-06T15:55:08.942Z,62.03
2018-03-06T15:57:36.515Z,64.17
2018-03-06T16:00:04.040Z,71.27
2018-03-06T16:02:31.642Z,65.43
2018-03-06T16:05:00.018Z,67.37
2018-03-06T16:07:28.353Z,69.90
2018-03-06T16:09:55.863Z,67.43
2018-03-06T16:12:23.371Z,67.60
2018-03-06T16:14:51.656Z,68.97
2018-03-06T16:17:20.507Z,66.17
2018-03-06T16:19:48.960Z,69.40
2018-03-06T16:22:16.497Z,72.47
2018-03-06T16:24:45.552Z,66.80
2018-03-06T16:27:13.092Z,73.00
2018-03-06T16:35:23.089Z,67.53
2018-03-06T16:37:51.222Z,61.93
2018-03-06T16:40:18.743Z,65.53
2018-03-06T16:42:46.261Z,63.40
2018-03-06T16:45:13.848Z,64.40
2018-03-06T16:47:41.403Z,65.50
2018-03-06T16:50:08.980Z,63.90
2018-03-06T16:52:36.712Z,68.83
2018-03-06T16:55:05.102Z,65.50
2018-03-06T16:57:32.612Z,62.50
2018-03-06T17:00:00.150Z,64.37
2018-03-06T17:02:28.481Z,68.20
2018-03-06T17:04:56.007Z,64.20
2018-03-06T17:07:23.673Z,67.43
2018-03-06T17:09:51.206Z,64.77
2018-03-06T17:12:19.483Z,70.13
2018-03-06T17:14:47.004Z,66.30
2018-03-06T17:17:14.567Z,71.43
2018-03-06T17:19:42.443Z,66.67
2018-03-06T17:22:09.974Z,67.50
2018-03-06T17:24:37.524Z,69.63
2018-03-06T17:27:05.825Z,69.40
2018-03-06T17:29:33.608Z,65.77
2018-03-06T17:32:01.158Z,68.37
2018-03-06T17:34:29.552Z,69.40
2018-03-06T17:36:58.348Z,71.63
2018-03-06T17:39:26.652Z,70.53
2018-03-06T17:41:54.193Z,63.33
2018-03-06T17:44:22.474Z,62.30
2018-03-06T17:46:50.021Z,67.47
2018-03-06T17:49:17.663Z,65.97
2018-03-06T17:51:45.197Z,65.83
2018-03-06T17:54:13.587Z,66.20
2018-03-06T17:56:41.139Z,66.20
2018-03-06T17:59:08.711Z,62.27
2018-03-06T18:01:36.433Z,62.73
2018-03-06T18:04:04.730Z,61.53
2018-03-06T18:06:32.271Z,62.07
2018-03-06T18:08:59.902Z,61.27
2018-03-06T18:11:27.463Z,62.00
2018-03-06T18:13:55.200Z,65.17
2018-03-06T18:16:23.475Z,63.53
2018-03-06T18:18:51.180Z,60.27
2018-03-06T18:21:18.814Z,64.87
2018-03-06T18:23:46.357Z,66.23
2018-03-06T18:26:13.913Z,64.40
2018-03-06T18:28:41.497Z,70.77
2018-03-06T18:31:09.115Z,68.27
2018-03-06T18:33:38.435Z,68.33
2018-03-06T18:36:06.007Z,62.53
2018-03-06T18:38:34.377Z,65.57
2018-03-06T18:41:01.982Z,68.20
2018-03-06T18:43:29.509Z,69.60
2018-03-06T18:45:57.065Z,60.83
2018-03-06T18:48:24.787Z,68.13
2018-03-06T18:51:05.093Z,66.67
2018-03-06T18:53:32.811Z,65.80
2018-03-06T18:56:00.373Z,62.10
2018-03-06T18:58:27.997Z,61.77
2018-03-06T19:01:12.387Z,64.87
2018-03-06T19:03:51.719Z,65.73
2018-03-06T19:06:31.265Z,66.20
2018-03-06T19:08:59.257Z,68.93
2018-03-06T19:11:27.029Z,65.93
2018-03-06T19:13:54.708Z,69.47
2018-03-06T19:16:22.280Z,64.30
2018-03-06T19:18:49.885Z,66.20
2018-03-06T19:21:17.625Z,61.53
2018-03-06T19:23:45.184Z,63.17
2018-03-06T19:26:12.765Z,63.20
2018-03-06T19:28:40.322Z,61.57
2018-03-06T19:31:08.636Z,64.63
2018-03-06T19:33:36.403Z,59.20
2018-03-06T19:36:04.215Z,59.53
2018-03-06T19:38:31.910Z,60.13
2018-03-06T19:41:00.281Z,57.07
2018-03-06T19:43:28.021Z,57.67
2018-03-06T19:45:55.656Z,60.00
2018-03-06T19:48:23.498Z,59.30
2018-03-06T19:50:51.260Z,56.93
2018-03-06T19:53:18.923Z,57.53
2018-03-06T19:55:46.504Z,58.50
2018-03-06T19:58:14.143Z,55.23
2018-03-06T20:00:42.055Z,54.93
2018-03-06T20:03:09.672Z,54.23
2018-03-06T20:05:37.266Z,52.40
2018-03-06T20:08:05.697Z,56.07
2018-03-06T20:10:33.477Z,53.57
2018-03-06T20:13:02.085Z,50.33
2018-03-06T20:15:29.677Z,51.13
2018-03-06T20:17:57.506Z,49.50
2018-03-06T20:20:25.224Z,49.07
2018-03-06T20:22:52.797Z,48.63
2018-03-06T20:25:26.445Z,51.00
2018-03-06T20:27:54.853Z,47.53
2018-03-06T20:30:28.047Z,47.70
2018-03-06T20:33:01.391Z,45.87
2018-03-06T20:35:29.028Z,28.40
2018-03-06T20:37:56.821Z,35.37
2018-03-06T20:40:29.992Z,41.07
2018-03-06T20:42:58.699Z,39.03
2018-03-06T20:45:26.308Z,40.47
2018-03-06T20:47:54.545Z,40.37
2018-03-06T20:50:23.069Z,40.23
2018-03-06T20:52:56.633Z,39.23
2018-03-06T20:55:24.431Z,37.40
2018-03-06T20:57:53.168Z,37.03
2018-03-06T21:00:21.145Z,35.70
2018-03-06T21:02:49.175Z,35.70
2018-03-06T21:05:16.947Z,37.20
2018-03-06T21:07:44.690Z,37.43
2018-03-06T21:10:12.664Z,37.10
2018-03-06T21:12:40.640Z,33.30
2018-03-06T21:15:08.541Z,40.50
2018-03-06T21:17:36.186Z,38.77
2018-03-06T21:20:04.316Z,40.87
2018-03-06T21:22:32.186Z,43.90
2018-03-06T21:25:00.221Z,41.80
2018-03-06T21:27:27.915Z,41.73
2018-03-06T21:29:55.537Z,40.20
2018-03-06T21:32:23.298Z,39.67
2018-03-06T21:34:51.148Z,38.60
2018-03-06T21:37:19.019Z,38.83
2018-03-06T21:39:46.827Z,39.10
2018-03-06T21:42:14.780Z,39.47
2018-03-06T21:44:42.609Z,39.83
2018-03-06T21:47:10.619Z,38.77
2018-03-06T21:49:38.991Z,42.63
2018-03-06T21:52:07.416Z,40.07
2018-03-06T21:54:35.150Z,39.50
2018-03-06T21:57:02.810Z,40.50
2018-03-06T21:59:30.554Z,42.87
2018-03-06T22:01:58.479Z,41.90
2018-03-06T22:04:26.112Z,40.53
2018-03-06T22:06:53.734Z,44.67
2018-03-06T22:09:21.318Z,42.30
2018-03-06T22:11:49.760Z,44.53
2018-03-06T22:14:17.338Z,42.17
2018-03-06T22:16:44.902Z,39.90
2018-03-06T22:19:12.621Z,44.77
2018-03-06T22:21:40.948Z,39.40
2018-03-06T22:24:08.586Z,38.40
2018-03-06T22:26:36.986Z,39.17
2018-03-06T22:29:05.537Z,37.43
2018-03-06T22:31:33.090Z,37.10
2018-03-06T22:34:00.636Z,38.17
2018-03-06T22:36:28.422Z,38.37
2018-03-06T22:38:56.000Z,38.93
2018-03-06T22:41:23.772Z,36.07
2018-03-06T22:43:51.329Z,39.90
2018-03-06T22:46:18.885Z,39.67
2018-03-06T22:48:46.420Z,36.80
2018-03-06T22:51:13.988Z,38.30
2018-03-06T22:53:41.538Z,36.83
2018-03-06T22:56:09.142Z,38.40
2018-03-06T22:58:36.663Z,36.63
2018-03-06T23:01:04.212Z,37.07
2018-03-06T23:03:32.527Z,33.60
2018-03-06T23:06:00.187Z,35.00
2018-03-06T23:08:28.590Z,34.93
2018-03-06T23:10:56.125Z,36.13
2018-03-06T23:13:23.787Z,36.40
2018-03-06T23:15:51.358Z,34.83
2018-03-06T23:18:18.884Z,33.33
2018-03-06T23:20:46.546Z,33.00
2018-03-06T23:23:14.042Z,34.00
2018-03-06T23:25:41.665Z,33.97
2018-03-06T23:28:09.970Z,35.20
2018-03-06T23:30:37.505Z,32.83
2018-03-06T23:33:06.661Z,34.20
2018-03-06T23:35:34.211Z,33.30
2018-03-06T23:38:01.765Z,33.47
2018-03-06T23:40:29.310Z,32.40
2018-03-06T23:42:56.826Z,32.43
2018-03-06T23:45:25.135Z,33.07
2018-03-06T23:47:52.906Z,35.57
2018-03-06T23:50:20.443Z,32.53
2018-03-06T23:52:47.933Z,32.50
2018-03-06T23:55:16.224Z,34.67
2018-03-06T23:57:44.578Z,34.67
